sensor_id;sensor_type;location;lat;lon;timestamp;pressure;altitude;pressure_sealevel;temperature;humidity
50696;BME280;36665;51.786;21.594;2023-05-29T00:03:28;94468.25;;;6.89;51.52
50696;BME280;36665;51.786;21.594;2023-05-29T00:11:56;94442.88;;;6.82;51.44
50696;BME280;36665;51.786;21.594;2023-05-29T00:20:19;94429.55;;;6.79;51.47
50696;BME280;36665;51.786;21.594;2023-05-29T00:28:43;94412.85;;;6.75;51.56
50696;BME280;36665;51.786;21.594;2023-05-29T00:37:09;94357.36;;;6.60;51.53
50696;BME280;36665;51.786;21.594;2023-05-29T00:45:35;94333.90;;;6.54;51.43
50696;BME280;36665;51.786;21.594;2023-05-29T00:53:59;94328.95;;;6.53;51.40
50696;BME280;36665;51.786;21.594;2023-05-29T01:02:22;94285.23;;;6.40;51.47
50696;BME280;36665;51.786;21.594;2023-05-29T01:10:46;94235.43;;;6.28;51.51
50696;BME280;36665;51.786;21.594;2023-05-29T01:19:23;94219.04;;;6.22;51.42
50696;BME280;36665;51.786;21.594;2023-05-29T01:27:51;94140.27;;;6.02;51.68
50696;BME280;36665;51.786;21.594;2023-05-29T01:36:17;94077.64;;;5.84;51.45
50696;BME280;36665;51.786;21.594;2023-05-29T01:44:40;94070.03;;;5.82;51.47
50696;BME280;36665;51.786;21.594;2023-05-29T01:53:04;94055.25;;;5.78;51.55
50696;BME280;36665;51.786;21.594;2023-05-29T02:01:27;94026.01;;;5.70;51.61
50696;BME280;36665;51.786;21.594;2023-05-29T02:09:50;93997.48;;;5.62;51.59
50696;BME280;36665;51.786;21.594;2023-05-29T02:18:15;93995.59;;;5.62;51.47
50696;BME280;36665;51.786;21.594;2023-05-29T02:26:40;94013.05;;;5.67;51.53
50696;BME280;36665;51.786;21.594;2023-05-29T02:35:04;94000.92;;;5.63;51.57
50696;BME280;36665;51.786;21.594;2023-05-29T02:43:27;93954.72;;;5.51;51.70
50696;BME280;36665;51.786;21.594;2023-05-29T02:51:51;93957.91;;;5.53;51.71
50696;BME280;36665;51.786;21.594;2023-05-29T03:00:19;93996.95;;;5.64;51.62
50696;BME280;36665;51.786;21.594;2023-05-29T03:08:43;94035.51;;;5.74;51.73
50696;BME280;36665;51.786;21.594;2023-05-29T03:17:07;94101.80;;;5.92;51.63
50696;BME280;36665;51.786;21.594;2023-05-29T03:25:31;94334.19;;;6.55;51.99
50696;BME280;36665;51.786;21.594;2023-05-29T03:33:54;94600.04;;;7.28;52.20
50696;BME280;36665;51.786;21.594;2023-05-29T03:42:22;94711.86;;;7.59;52.23
50696;BME280;36665;51.786;21.594;2023-05-29T03:50:46;94803.48;;;7.84;52.43
50696;BME280;36665;51.786;21.594;2023-05-29T03:59:13;95012.89;;;8.39;52.65
50696;BME280;36665;51.786;21.594;2023-05-29T04:07:36;95316.39;;;9.20;52.70
50696;BME280;36665;51.786;21.594;2023-05-29T04:16:03;95632.84;;;10.05;53.06
50696;BME280;36665;51.786;21.594;2023-05-29T04:24:26;95909.40;;;10.78;53.25
50696;BME280;36665;51.786;21.594;2023-05-29T04:32:49;96255.38;;;11.68;53.56
50696;BME280;36665;51.786;21.594;2023-05-29T04:41:15;96574.06;;;12.49;53.77
50696;BME280;36665;51.786;21.594;2023-05-29T04:49:39;96849.17;;;13.20;54.13
50696;BME280;36665;51.786;21.594;2023-05-29T04:58:03;97157.00;;;14.00;54.06
50696;BME280;36665;51.786;21.594;2023-05-29T05:06:26;97452.79;;;14.75;54.47
50696;BME280;36665;51.786;21.594;2023-05-29T05:14:50;97767.20;;;15.53;54.76
50696;BME280;36665;51.786;21.594;2023-05-29T05:23:14;98075.52;;;16.30;54.83
50696;BME280;36665;51.786;21.594;2023-05-29T05:31:38;98317.30;;;16.90;54.96
50696;BME280;36665;51.786;21.594;2023-05-29T05:40:02;98529.67;;;17.41;55.29
50696;BME280;36665;51.786;21.594;2023-05-29T05:48:27;98771.65;;;17.99;55.50
50696;BME280;36665;51.786;21.594;2023-05-29T05:56:51;98908.98;;;18.32;55.45
50696;BME280;36665;51.786;21.594;2023-05-29T06:05:15;99027.83;;;18.60;55.76
50696;BME280;36665;51.786;21.594;2023-05-29T06:13:40;99225.31;;;19.07;55.89
50696;BME280;36665;51.786;21.594;2023-05-29T06:22:06;99574.96;;;19.92;56.00
50696;BME280;36665;51.786;21.594;2023-05-29T06:30:31;99912.84;;;20.72;56.04
50696;BME280;36665;51.786;21.594;2023-05-29T06:38:55;100272.89;;;21.55;56.23
50696;BME280;36665;51.786;21.594;2023-05-29T06:47:18;100578.48;;;22.27;56.64
50696;BME280;36665;51.786;21.594;2023-05-29T06:55:41;100780.95;;;22.72;56.62
50696;BME280;36665;51.786;21.594;2023-05-29T07:04:07;100925.65;;;23.05;56.59
50696;BME280;36665;51.786;21.594;2023-05-29T07:12:30;101073.96;;;23.38;56.78
50696;BME280;36665;51.786;21.594;2023-05-29T07:20:56;101162.18;;;23.57;56.76
50696;BME280;36665;51.786;21.594;2023-05-29T07:29:22;101216.08;;;23.68;56.71
50696;BME280;36665;51.786;21.594;2023-05-29T07:37:47;101097.17;;;23.41;56.79
50696;BME280;36665;51.786;21.594;2023-05-29T07:46:12;100932.15;;;23.02;56.78
50696;BME280;36665;51.786;21.594;2023-05-29T07:54:36;100883.60;;;22.90;56.69
50696;BME280;36665;51.786;21.594;2023-05-29T08:03:00;101094.84;;;23.39;56.77
50696;BME280;36665;51.786;21.594;2023-05-29T08:11:26;101212.37;;;23.66;56.70
50696;BME280;36665;51.786;21.594;2023-05-29T08:19:49;101224.05;;;23.68;56.87
50696;BME280;36665;51.786;21.594;2023-05-29T08:28:14;101226.50;;;23.68;56.71
50696;BME280;36665;51.786;21.594;2023-05-29T08:36:37;101202.33;;;23.63;56.78
50696;BME280;36665;51.786;21.594;2023-05-29T08:45:03;101204.95;;;23.63;56.62
50696;BME280;36665;51.786;21.594;2023-05-29T08:53:27;101213.20;;;23.65;56.64
50696;BME280;36665;51.786;21.594;2023-05-29T09:01:50;101375.02;;;24.01;56.65
50696;BME280;36665;51.786;21.594;2023-05-29T09:10:13;101502.39;;;24.31;56.70
50696;BME280;36665;51.786;21.594;2023-05-29T09:18:38;101532.34;;;24.38;56.65
50696;BME280;36665;51.786;21.594;2023-05-29T09:27:01;101503.41;;;24.31;56.50
50696;BME280;36665;51.786;21.594;2023-05-29T09:35:24;101429.72;;;24.15;56.38
50696;BME280;36665;51.786;21.594;2023-05-29T09:43:48;101333.02;;;23.93;56.37
50696;BME280;36665;51.786;21.594;2023-05-29T09:52:12;101386.27;;;24.06;56.39
50696;BME280;36665;51.786;21.594;2023-05-29T10:00:37;101588.63;;;24.52;56.27
50696;BME280;36665;51.786;21.594;2023-05-29T10:09:02;101795.30;;;25.00;56.22
50696;BME280;36665;51.786;21.594;2023-05-29T10:17:32;101899.05;;;25.23;56.12
50696;BME280;36665;51.786;21.594;2023-05-29T10:26:04;101974.02;;;25.40;56.31
50696;BME280;36665;51.786;21.594;2023-05-29T10:43:01;101926.59;;;25.30;56.10
50696;BME280;36665;51.786;21.594;2023-05-29T10:51:26;101988.02;;;25.44;56.02
50696;BME280;36665;51.786;21.594;2023-05-29T11:00:02;102002.06;;;25.48;56.05
50696;BME280;36665;51.786;21.594;2023-05-29T11:08:55;101843.02;;;25.12;56.08
50696;BME280;36665;51.786;21.594;2023-05-29T11:17:42;101929.27;;;25.33;55.88
50696;BME280;36665;51.786;21.594;2023-05-29T11:26:07;102041.02;;;25.58;55.77
50696;BME280;36665;51.786;21.594;2023-05-29T11:34:30;101712.77;;;24.85;55.74
50696;BME280;36665;51.786;21.594;2023-05-29T11:42:56;101347.15;;;24.01;55.60
50696;BME280;36665;51.786;21.594;2023-05-29T11:51:20;101099.90;;;23.44;55.36
50696;BME280;36665;51.786;21.594;2023-05-29T11:59:45;101164.52;;;23.61;55.37
50696;BME280;36665;51.786;21.594;2023-05-29T12:08:09;101332.21;;;24.00;55.28
50696;BME280;36665;51.786;21.594;2023-05-29T12:16:33;101487.84;;;24.37;55.05
50696;BME280;36665;51.786;21.594;2023-05-29T12:25:03;101602.18;;;24.64;55.08
50696;BME280;36665;51.786;21.594;2023-05-29T12:33:32;101643.71;;;24.75;55.18
50696;BME280;36665;51.786;21.594;2023-05-29T12:41:55;101663.26;;;24.79;55.02
50696;BME280;36665;51.786;21.594;2023-05-29T12:50:25;101640.55;;;24.74;54.92
50696;BME280;36665;51.786;21.594;2023-05-29T12:58:50;101706.02;;;24.90;55.09
50696;BME280;36665;51.786;21.594;2023-05-29T13:07:15;101861.27;;;25.26;54.78
50696;BME280;36665;51.786;21.594;2023-05-29T13:15:40;101980.45;;;25.53;54.80
50696;BME280;36665;51.786;21.594;2023-05-29T13:24:03;101956.27;;;25.48;54.77
50696;BME280;36665;51.786;21.594;2023-05-29T13:32:27;101897.27;;;25.35;54.61
50696;BME280;36665;51.786;21.594;2023-05-29T13:40:50;101821.09;;;25.18;54.79
50696;BME280;36665;51.786;21.594;2023-05-29T13:49:13;101500.81;;;24.46;54.42
50696;BME280;36665;51.786;21.594;2023-05-29T13:57:36;101145.58;;;23.64;54.34
50696;BME280;36665;51.786;21.594;2023-05-29T14:05:59;101113.54;;;23.59;54.25
50696;BME280;36665;51.786;21.594;2023-05-29T14:14:23;101220.52;;;23.84;54.31
50696;BME280;36665;51.786;21.594;2023-05-29T14:22:46;101350.17;;;24.15;53.96
50696;BME280;36665;51.786;21.594;2023-05-29T14:31:09;101462.19;;;24.41;53.98
50696;BME280;36665;51.786;21.594;2023-05-29T14:39:32;101506.68;;;24.52;53.91
50696;BME280;36665;51.786;21.594;2023-05-29T14:47:55;101500.14;;;24.51;53.86
50696;BME280;36665;51.786;21.594;2023-05-29T14:56:18;101386.27;;;24.25;53.83
50696;BME280;36665;51.786;21.594;2023-05-29T15:04:41;101287.34;;;24.03;53.66
50696;BME280;36665;51.786;21.594;2023-05-29T15:13:04;101240.95;;;23.93;53.63
50696;BME280;36665;51.786;21.594;2023-05-29T15:21:29;101223.96;;;23.89;53.47
50696;BME280;36665;51.786;21.594;2023-05-29T15:29:53;101172.59;;;23.78;53.41
50696;BME280;36665;51.786;21.594;2023-05-29T15:38:15;101115.34;;;23.66;53.34
50696;BME280;36665;51.786;21.594;2023-05-29T15:46:38;101065.41;;;23.55;53.20
50696;BME280;36665;51.786;21.594;2023-05-29T15:55:02;101028.77;;;23.47;53.27
50696;BME280;36665;51.786;21.594;2023-05-29T16:03:26;100984.41;;;23.38;53.21
50696;BME280;36665;51.786;21.594;2023-05-29T16:11:50;100938.45;;;23.28;52.86
50696;BME280;36665;51.786;21.594;2023-05-29T16:20:16;100886.90;;;23.15;53.03
50696;BME280;36665;51.786;21.594;2023-05-29T16:28:42;100851.17;;;23.08;52.88
50696;BME280;36665;51.786;21.594;2023-05-29T16:37:08;100764.05;;;22.88;52.81
50696;BME280;36665;51.786;21.594;2023-05-29T16:45:32;100604.55;;;22.51;52.66
50696;BME280;36665;51.786;21.594;2023-05-29T16:53:56;100448.77;;;22.15;52.50
50696;BME280;36665;51.786;21.594;2023-05-29T17:02:21;100278.83;;;21.74;52.47
50696;BME280;36665;51.786;21.594;2023-05-29T17:10:46;100115.16;;;21.36;52.54
50696;BME280;36665;51.786;21.594;2023-05-29T17:19:10;99995.88;;;21.08;52.49
50696;BME280;36665;51.786;21.594;2023-05-29T17:27:33;99875.80;;;20.80;52.03
50696;BME280;36665;51.786;21.594;2023-05-29T17:35:56;99794.61;;;20.61;52.19
50696;BME280;36665;51.786;21.594;2023-05-29T17:44:20;99685.74;;;20.34;52.07
50696;BME280;36665;51.786;21.594;2023-05-29T17:52:43;99552.64;;;20.03;51.79
50696;BME280;36665;51.786;21.594;2023-05-29T18:01:06;99374.34;;;19.60;51.98
50696;BME280;36665;51.786;21.594;2023-05-29T18:09:29;99177.73;;;19.12;51.58
50696;BME280;36665;51.786;21.594;2023-05-29T18:17:52;98992.29;;;18.66;51.69
50696;BME280;36665;51.786;21.594;2023-05-29T18:26:15;98819.52;;;18.24;51.49
50696;BME280;36665;51.786;21.594;2023-05-29T18:34:38;98646.15;;;17.81;51.52
50696;BME280;36665;51.786;21.594;2023-05-29T18:43:01;98466.00;;;17.37;51.17
50696;BME280;36665;51.786;21.594;2023-05-29T18:51:24;98275.61;;;16.89;51.17
50696;BME280;36665;51.786;21.594;2023-05-29T18:59:47;98091.52;;;16.43;51.18
50696;BME280;36665;51.786;21.594;2023-05-29T19:08:12;97932.41;;;16.02;50.93
50696;BME280;36665;51.786;21.594;2023-05-29T19:16:35;97782.86;;;15.65;50.93
50696;BME280;36665;51.786;21.594;2023-05-29T19:25:00;97653.97;;;15.33;50.92
50696;BME280;36665;51.786;21.594;2023-05-29T19:33:23;97500.02;;;14.94;50.68
50696;BME280;36665;51.786;21.594;2023-05-29T19:41:47;97389.97;;;14.66;50.64
50696;BME280;36665;51.786;21.594;2023-05-29T19:50:10;97295.22;;;14.42;50.66
50696;BME280;36665;51.786;21.594;2023-05-29T19:58:36;97223.65;;;14.25;50.57
50696;BME280;36665;51.786;21.594;2023-05-29T20:06:59;97163.62;;;14.09;50.46
50696;BME280;36665;51.786;21.594;2023-05-29T20:15:23;97138.59;;;14.03;50.52
50696;BME280;36665;51.786;21.594;2023-05-29T20:23:48;97127.54;;;14.02;50.52
50696;BME280;36665;51.786;21.594;2023-05-29T20:32:12;97098.21;;;13.93;50.48
50696;BME280;36665;51.786;21.594;2023-05-29T20:40:35;97037.34;;;13.78;50.68
50696;BME280;36665;51.786;21.594;2023-05-29T20:48:59;96934.42;;;13.51;50.44
50696;BME280;36665;51.786;21.594;2023-05-29T20:57:22;96861.35;;;13.31;50.43
50696;BME280;36665;51.786;21.594;2023-05-29T21:05:45;96807.34;;;13.18;50.39
50696;BME280;36665;51.786;21.594;2023-05-29T21:14:09;96783.30;;;13.12;50.51
50696;BME280;36665;51.786;21.594;2023-05-29T21:22:32;96808.88;;;13.19;50.64
50696;BME280;36665;51.786;21.594;2023-05-29T21:30:55;96866.39;;;13.34;50.44
50696;BME280;36665;51.786;21.594;2023-05-29T21:39:20;96977.61;;;13.64;50.60
50696;BME280;36665;51.786;21.594;2023-05-29T21:47:44;97074.19;;;13.90;50.71
50696;BME280;36665;51.786;21.594;2023-05-29T21:56:08;97143.39;;;14.08;50.71
50696;BME280;36665;51.786;21.594;2023-05-29T22:04:31;97187.46;;;14.19;50.86
50696;BME280;36665;51.786;21.594;2023-05-29T22:12:58;97218.59;;;14.27;50.82
50696;BME280;36665;51.786;21.594;2023-05-29T22:21:25;97230.15;;;14.31;50.93
50696;BME280;36665;51.786;21.594;2023-05-29T22:29:49;97242.15;;;14.34;50.91
50696;BME280;36665;51.786;21.594;2023-05-29T22:38:13;97241.63;;;14.34;50.76
50696;BME280;36665;51.786;21.594;2023-05-29T22:46:36;97244.27;;;14.34;50.89
50696;BME280;36665;51.786;21.594;2023-05-29T22:55:01;97229.89;;;14.30;51.02
50696;BME280;36665;51.786;21.594;2023-05-29T23:03:25;97203.80;;;14.22;51.05
50696;BME280;36665;51.786;21.594;2023-05-29T23:11:50;97176.85;;;14.17;51.03
50696;BME280;36665;51.786;21.594;2023-05-29T23:20:15;97144.73;;;14.08;51.06
50696;BME280;36665;51.786;21.594;2023-05-29T23:28:39;97108.15;;;13.99;51.03
50696;BME280;36665;51.786;21.594;2023-05-29T23:37:02;97075.07;;;13.89;51.20
50696;BME280;36665;51.786;21.594;2023-05-29T23:45:27;97049.18;;;13.82;51.03
50696;BME280;36665;51.786;21.594;2023-05-29T23:53:50;97011.42;;;13.72;51.01
